Dades meteomassalio
Diari Summary for Juliol 18, 2017 Units:  Metric    English   Both
« Previous Day
Next Day »
Diari Semanal Mensual Anual Personalitzat
  Maxima: Minima: Mijana:
Temperatura: -17.8 °C -7.3 °C -3.1 °C
Rosada: -17.8 °C -11.1 °C -8.3 °C
Humitat: Humidity % 31 % 60 %
Velocitat del vent: 0 km/h 0 km/h 16.6 km/h
Racha vent: 0 km/h - -
Vent:- - ESE
Pressio: 0 hPa 34198.6 hPa -
Pluja: 0 mm    
Historical Graphs
 
 
Tabular Data for Juliol 18, 2017
Time Temperature Dew Point Pressure Wind Wind Speed Wind Gust Humidity Rainfall Rate (Hourly) solar Conditions
-17.8 °C -17.8 °C 0 hPa Calm     Humidity % 0 mm SolarRadiationWatts/m^2 W/m2 Conditions
00:02 -4 °C -9.6 °C 34371.3 hPa Calm     54 % 0 mm 0.0 W/m2 RA
00:07 -4.1 °C -9.5 °C 34371.3 hPa Calm   0.3 km/h 55 % 0 mm 0.0 W/m2 CLR
00:12 -4.2 °C -9.3 °C 34371.3 hPa Calm     56 % 0 mm 0.0 W/m2 CLR
00:17 -4.3 °C -9 °C 34371.3 hPa Calm     59 % 0 mm 0.0 W/m2 CLR
00:22 -4.4 °C -8.6 °C 34371.3 hPa Calm     63 % 0 mm 0.0 W/m2 CLR
00:27 -4.6 °C -8.3 °C 34371.3 hPa Calm     66 % 0 mm 0.0 W/m2 CLR
00:32 -4.8 °C -8.3 °C 34361.1 hPa Calm     68 % 0 mm 0.0 W/m2 CLR
00:37 -4.9 °C -8.2 °C 34361.1 hPa Calm     69 % 0 mm 0.0 W/m2 CLR
00:42 -4.9 °C -8.2 °C 34361.1 hPa Calm     70 % 0 mm 0.0 W/m2 CLR
00:47 -5 °C -8.2 °C 34361.1 hPa Calm     70 % 0 mm 0.0 W/m2 CLR
00:52 -5.1 °C -8.3 °C 34361.1 hPa Calm     70 % 0 mm 0.0 W/m2 CLR
00:57 -5.1 °C -8.2 °C 34361.1 hPa Calm     71 % 0 mm 0.0 W/m2 CLR
01:02 -5.2 °C -8.4 °C 34347.6 hPa Calm     70 % 0 mm 0.0 W/m2 CLR
01:07 -5.1 °C -8.4 °C 34347.6 hPa SE 6 km/h 6 km/h 69 % 0 mm 0.0 W/m2 CLR
01:12 -5.1 °C -8.4 °C 34347.6 hPa Calm   0.5 km/h 69 % 0 mm 0.0 W/m2 CLR
01:17 -5 °C -8.3 °C 34347.6 hPa Calm     69 % 0 mm 0.0 W/m2 CLR
01:22 -5 °C -8.3 °C 34361.1 hPa Calm     69 % 0 mm 0.0 W/m2 CLR
01:27 -5.1 °C -8.4 °C 34361.1 hPa Calm     69 % 0 mm 0.0 W/m2 CLR
01:32 -5.1 °C -8.3 °C 34347.6 hPa Calm     70 % 0 mm 0.0 W/m2 CLR
01:37 -5.1 °C -8.2 °C 34347.6 hPa Calm     71 % 0 mm 0.0 W/m2 CLR
01:42 -5.2 °C -8.2 °C 34347.6 hPa Calm     71 % 0 mm 0.0 W/m2 CLR
01:47 -5.2 °C -8.2 °C 34347.6 hPa Calm     72 % 0 mm 0.0 W/m2 CLR
01:52 -5.2 °C -8.2 °C 34347.6 hPa Calm     72 % 0 mm 0.0 W/m2 CLR
01:57 -5.2 °C -8.1 °C 34361.1 hPa Calm     73 % 0 mm 0.0 W/m2 CLR
01:58 -5.2 °C -8.1 °C 34361.1 hPa Calm     73 % 0 mm 0.0 W/m2 CLR
02:03 -5.2 °C -8.1 °C 34347.6 hPa Calm     73 % 0 mm 0.0 W/m2 CLR
02:08 -5.3 °C -8.1 °C 34347.6 hPa Calm     73 % 0 mm 0.0 W/m2 CLR
02:13 -5.4 °C -8.1 °C 34347.6 hPa Calm     74 % 0 mm 0.0 W/m2 CLR
02:18 -5.4 °C -8.1 °C 34347.6 hPa Calm     74 % 0 mm 0.0 W/m2 CLR
02:23 -5.4 °C -7.9 °C 34347.6 hPa Calm     75 % 0 mm 0.0 W/m2 CLR
02:28 -5.4 °C -8 °C 34347.6 hPa Calm     75 % 0 mm 0.0 W/m2 CLR
02:33 -5.5 °C -8.1 °C 34361.1 hPa Calm     75 % 0 mm 0.0 W/m2 CLR
02:38 -5.6 °C -8.1 °C 34361.1 hPa Calm     76 % 0 mm 0.0 W/m2 CLR
02:43 -5.8 °C -8.2 °C 34361.1 hPa Calm     76 % 0 mm 0.0 W/m2 CLR
02:48 -5.9 °C -8.3 °C 34347.6 hPa Calm     76 % 0 mm 0.0 W/m2 CLR
02:53 -5.9 °C -8.3 °C 34347.6 hPa Calm     77 % 0 mm 0.0 W/m2 CLR
02:58 -5.9 °C -8.2 °C 34347.6 hPa Calm     77 % 0 mm 0.0 W/m2 CLR
03:03 -5.9 °C -8.2 °C 34347.6 hPa Calm     77 % 0 mm 0.0 W/m2 CLR
03:08 -5.9 °C -8.2 °C 34347.6 hPa Calm     77 % 0 mm 0.0 W/m2 CLR
03:13 -5.8 °C -8.4 °C 34347.6 hPa Calm     75 % 0 mm 0.0 W/m2 CLR
03:18 -5.7 °C -8.4 °C 34347.6 hPa SE 9 km/h 9 km/h 74 % 0 mm 0.0 W/m2 CLR
03:23 -5.5 °C -8.2 °C 34347.6 hPa ESE 5.1 km/h   74 % 0 mm 0.0 W/m2 CLR
03:28 -5.4 °C -8.3 °C 34347.6 hPa Calm     73 % 0 mm 0.0 W/m2 CLR
03:33 -5.4 °C -8.3 °C 34347.6 hPa Calm     73 % 0 mm 0.0 W/m2 CLR
03:38 -5.4 °C -8.4 °C 34337.4 hPa Calm     72 % 0 mm 0.0 W/m2 CLR
03:43 -5.4 °C -8.4 °C 34337.4 hPa Calm     72 % 0 mm 0.0 W/m2 CLR
03:48 -5.6 °C -8.3 °C 34337.4 hPa NNE 2.6 km/h   74 % 0 mm 0.0 W/m2 CLR
03:53 -5.7 °C -8.3 °C 34337.4 hPa Calm     75 % 0 mm 0.0 W/m2 CLR
03:58 -5.9 °C -8.2 °C 34337.4 hPa Calm     77 % 0 mm 0.0 W/m2 CLR
04:03 -5.9 °C -8 °C 34337.4 hPa NE 2.6 km/h 2.6 km/h 79 % 0 mm 0.0 W/m2 CLR
04:08 -5.9 °C -7.9 °C 34337.4 hPa Calm     80 % 0 mm 0.0 W/m2 CLR
04:13 -5.9 °C -7.9 °C 34337.4 hPa Calm     80 % 0 mm 0.0 W/m2 CLR
04:18 -5.9 °C -7.8 °C 34337.4 hPa Calm     81 % 0 mm 0.0 W/m2 CLR
04:23 -6 °C -7.9 °C 34337.4 hPa Calm     81 % 0 mm 0.0 W/m2 CLR
04:28 -6 °C -7.9 °C 34337.4 hPa Calm     81 % 0 mm 0.0 W/m2 CLR
04:33 -6.1 °C -7.9 °C 34327.3 hPa Calm     81 % 0 mm 0.0 W/m2 CLR
04:38 -6.1 °C -7.9 °C 34327.3 hPa Calm     81 % 0 mm 0.0 W/m2 CLR
04:43 -6.1 °C -8.1 °C 34327.3 hPa Calm     80 % 0 mm 0.0 W/m2 CLR
04:48 -6.1 °C -8 °C 34327.3 hPa Calm     81 % 0 mm 0.0 W/m2 CLR
04:53 -6.1 °C -8 °C 34327.3 hPa Calm     81 % 0 mm 0.0 W/m2 CLR
04:58 -6.2 °C -8.2 °C 34327.3 hPa Calm     80 % 0 mm 0.0 W/m2 CLR
05:03 -6.3 °C -8.3 °C 34327.3 hPa Calm     80 % 0 mm 0.0 W/m2 CLR
05:08 -6.3 °C -8.2 °C 34327.3 hPa Calm     81 % 0 mm 0.0 W/m2 CLR
05:13 -6.4 °C -8.2 °C 34327.3 hPa Calm     82 % 0 mm 0.0 W/m2 CLR
05:18 -6.3 °C -8.1 °C 34327.3 hPa Calm     82 % 0 mm 0.0 W/m2 CLR
05:23 -6.3 °C -8.1 °C 34327.3 hPa Calm     82 % 0 mm 0.0 W/m2 CLR
05:28 -6.3 °C -8.1 °C 34327.3 hPa Calm     82 % 0 mm 0.0 W/m2 CLR
05:33 -6.3 °C -8.3 °C 34327.3 hPa Calm     80 % 0 mm 0.0 W/m2 CLR
05:38 -6.4 °C -8.3 °C 34327.3 hPa Calm     81 % 0 mm 0.0 W/m2 CLR
05:43 -6.6 °C -8.4 °C 34327.3 hPa Calm     81 % 0 mm 0.0 W/m2 CLR
05:48 -6.6 °C -8.4 °C 34327.3 hPa Calm     82 % 0 mm 0.0 W/m2 CLR
05:53 -6.7 °C -8.4 °C 34327.3 hPa Calm     83 % 0 mm 0.0 W/m2 CLR
05:58 -6.7 °C -8.2 °C 34327.3 hPa Calm     84 % 0 mm 0.0 W/m2 CLR
06:03 -6.6 °C -8.3 °C 34327.3 hPa Calm     83 % 0 mm 0.0 W/m2 CLR
06:08 -6.6 °C -8.3 °C 34327.3 hPa Calm     83 % 0 mm 0.0 W/m2 CLR
06:13 -6.6 °C -8.3 °C 34327.3 hPa Calm     82 % 0 mm 0.0 W/m2 CLR
06:18 -6.4 °C -8.2 °C 34327.3 hPa Calm     82 % 0 mm 0.0 W/m2 CLR
06:24 -6.4 °C -8.4 °C 34337.4 hPa Calm     80 % 0 mm 0.0 W/m2 CLR
06:29 -6.6 °C -8.4 °C 34337.4 hPa Calm     81 % 0 mm 0.0 W/m2 CLR
06:34 -6.7 °C -8.6 °C 34337.4 hPa Calm     81 % 0 mm 0.0 W/m2 OVC
06:39 -6.8 °C -8.4 °C 34337.4 hPa Calm     83 % 0 mm 0.0 W/m2 OVC
06:43 -6.9 °C -8.6 °C 34337.4 hPa Calm     83 % 0 mm 0.0 W/m2 OVC
06:49 -6.9 °C -8.5 °C 34337.4 hPa Calm     84 % 0 mm 5.0 W/m2 OVC
06:54 -7.1 °C -8.6 °C 34337.4 hPa Calm     84 % 0 mm 9.0 W/m2 BKN
06:59 -7.1 °C -8.5 °C 34337.4 hPa Calm     85 % 0 mm 11.0 W/m2 BKN
07:04 -7.1 °C -8.5 °C 34337.4 hPa Calm     85 % 0 mm 14.0 W/m2 BKN
07:09 -7.2 °C -8.6 °C 34337.4 hPa Calm     85 % 0 mm 19.0 W/m2 BKN
07:14 -7.3 °C -8.7 °C 34337.4 hPa Calm     85 % 0 mm 25.0 W/m2 BKN
07:19 -7.3 °C -8.7 °C 34347.6 hPa Calm     85 % 0 mm 32.0 W/m2 BKN
07:24 -7.2 °C -8.6 °C 34347.6 hPa Calm     86 % 0 mm 37.0 W/m2 BKN
07:29 -7.2 °C -8.6 °C 34347.6 hPa Calm     86 % 0 mm 47.0 W/m2 SCT
07:34 -7.2 °C -8.5 °C 34347.6 hPa Calm     86 % 0 mm 56.0 W/m2 SCT
07:39 -7.1 °C -8.3 °C 34347.6 hPa Calm     87 % 0 mm 70.0 W/m2 FEW
07:44 -7.1 °C -8.4 °C 34347.6 hPa Calm     86 % 0 mm 86.0 W/m2 FEW
07:49 -7.1 °C -8.4 °C 34347.6 hPa Calm     86 % 0 mm 107.0 W/m2 CLR
07:54 -7 °C -8.4 °C 34347.6 hPa Calm     85 % 0 mm 111.0 W/m2 CLR
07:59 -6.9 °C -8.4 °C 34347.6 hPa Calm     85 % 0 mm 102.0 W/m2 CLR
08:04 -6.8 °C -8.3 °C 34347.6 hPa Calm     85 % 0 mm 100.0 W/m2 CLR
08:09 -6.7 °C -8.2 °C 34347.6 hPa Calm     85 % 0 mm 100.0 W/m2 CLR
08:14 -6.6 °C -8.2 °C 34347.6 hPa Calm     84 % 0 mm 111.0 W/m2 CLR
08:19 -6.5 °C -8.2 °C 34361.1 hPa Calm     83 % 0 mm 135.0 W/m2 CLR
08:24 -6.4 °C -8.1 °C 34361.1 hPa Calm     83 % 0 mm 125.0 W/m2 CLR
08:29 -6.2 °C -8 °C 34361.1 hPa Calm     82 % 0 mm 111.0 W/m2 CLR
08:34 -6.2 °C -8 °C 34361.1 hPa Calm     81 % 0 mm 107.0 W/m2 CLR
08:39 -6.1 °C -7.9 °C 34361.1 hPa Calm     81 % 0 mm 137.0 W/m2 CLR
08:44 -5.9 °C -7.9 °C 34361.1 hPa Calm     80 % 0 mm 237.0 W/m2 CLR
08:49 -5.8 °C -7.9 °C 34361.1 hPa Calm     79 % 0 mm 248.0 W/m2 CLR
08:54 -5.7 °C -8 °C 34361.1 hPa Calm     77 % 0 mm 153.0 W/m2 CLR
08:59 -5.5 °C -7.9 °C 34361.1 hPa Calm     76 % 0 mm 206.0 W/m2 CLR
09:04 -5.3 °C -8 °C 34361.1 hPa Calm     74 % 0 mm 292.0 W/m2 CLR
09:09 -5.1 °C -8.1 °C 34361.1 hPa Calm     71 % 0 mm 244.0 W/m2 CLR
09:14 -4.8 °C -7.8 °C 34361.1 hPa Calm     71 % 0 mm 399.0 W/m2 CLR
09:19 -4.4 °C -7.7 °C 34361.1 hPa Calm     70 % 0 mm 381.0 W/m2 CLR
09:24 -4.1 °C -7.6 °C 34361.1 hPa Calm     68 % 0 mm 343.0 W/m2 CLR
09:29 -3.8 °C -7.6 °C 34361.1 hPa Calm     66 % 0 mm 144.0 W/m2 CLR
09:34 -3.7 °C -7.7 °C 34361.1 hPa Calm     64 % 0 mm 128.0 W/m2 CLR
09:39 -3.7 °C -7.8 °C 34361.1 hPa Calm     64 % 0 mm 127.0 W/m2 CLR
09:44 -3.8 °C -7.7 °C 34361.1 hPa Calm     65 % 0 mm 125.0 W/m2 CLR
09:49 -3.8 °C -7.7 °C 34361.1 hPa Calm     65 % 0 mm 128.0 W/m2 CLR
09:54 -3.8 °C -7.7 °C 34361.1 hPa Calm     65 % 0 mm 97.0 W/m2 CLR
09:59 -3.8 °C -7.9 °C 34361.1 hPa Calm     64 % 0 mm 97.0 W/m2 CLR
10:04 -3.8 °C -8 °C 34361.1 hPa Calm     63 % 0 mm 204.0 W/m2 CLR
10:09 -3.7 °C -7.7 °C 34361.1 hPa Calm     64 % 0 mm 485.0 W/m2 CLR
10:14 -3.4 °C -7.6 °C 34361.1 hPa Calm     63 % 0 mm 506.0 W/m2 CLR
10:20 -3.1 °C -7.6 °C 34347.6 hPa Calm     61 % 0 mm 529.0 W/m2 CLR
10:25 -2.8 °C -8.1 °C 34361.1 hPa Calm     56 % 0 mm 545.0 W/m2 CLR
10:30 -2.6 °C -7.7 °C 34361.1 hPa Calm     57 % 0 mm 555.0 W/m2 CLR
10:35 -2.4 °C -7.4 °C 34347.6 hPa Calm     58 % 0 mm 571.0 W/m2 CLR
10:40 -2.4 °C -8 °C 34347.6 hPa Calm     54 % 0 mm 585.0 W/m2 CLR
10:45 -2.3 °C -8.7 °C 34347.6 hPa Calm     50 % 0 mm 599.0 W/m2 CLR
10:50 -2.3 °C -8.8 °C 34347.6 hPa ENE 6 km/h 6 km/h 49 % 0 mm 615.0 W/m2 CLR
10:55 -2.2 °C -8.7 °C 34347.6 hPa ENE 6 km/h   49 % 0 mm 631.0 W/m2 CLR
11:00 -2 °C -8.7 °C 34347.6 hPa ENE 12.9 km/h 12.9 km/h 48 % 0 mm 643.0 W/m2 CLR
11:05 -1.8 °C -10.2 °C 34337.4 hPa SE 26.9 km/h 26.9 km/h 40 % 0 mm 661.0 W/m2 CLR
11:10 -1.7 °C -10.2 °C 34337.4 hPa ESE 20.9 km/h 20.9 km/h 39 % 0 mm 671.0 W/m2 CLR
11:15 -1.6 °C -10.8 °C 34337.4 hPa SE 31.1 km/h 31.1 km/h 36 % 0 mm 684.0 W/m2 CLR
11:20 -1.6 °C -10.9 °C 34337.4 hPa SE 29.8 km/h 29.8 km/h 36 % 0 mm 696.0 W/m2 CLR
11:25 -1.6 °C -11 °C 34337.4 hPa SE 29.8 km/h 29.8 km/h 35 % 0 mm 710.0 W/m2 CLR
11:30 -1.5 °C -10.9 °C 34337.4 hPa ESE 32.8 km/h 32.8 km/h 35 % 0 mm 724.0 W/m2 CLR
11:35 -1.4 °C -10.9 °C 34337.4 hPa SE 29.8 km/h 29.8 km/h 35 % 0 mm 737.0 W/m2 CLR
11:40 -1.3 °C -11.1 °C 34327.3 hPa SE 23.8 km/h 23.8 km/h 34 % 0 mm 749.0 W/m2 CLR
11:45 -1.2 °C -11 °C 34327.3 hPa SE 15 km/h 15 km/h 34 % 0 mm 752.0 W/m2 CLR
11:50 -1.1 °C -11.1 °C 34327.3 hPa SSE 26.9 km/h 26.9 km/h 33 % 0 mm 763.0 W/m2 CLR
11:55 -0.9 °C -10.7 °C 34327.3 hPa SE 20.9 km/h 20.9 km/h 34 % 0 mm 772.0 W/m2 CLR
12:00 -0.8 °C -10.6 °C 34327.3 hPa SSE 29.8 km/h 29.8 km/h 34 % 0 mm 779.0 W/m2 CLR
12:05 -0.8 °C -10.4 °C 34327.3 hPa East 6 km/h 6 km/h 35 % 0 mm 788.0 W/m2 CLR
12:10 -0.7 °C -10.2 °C 34327.3 hPa ESE 23.8 km/h 23.8 km/h 35 % 0 mm 795.0 W/m2 CLR
12:15 -0.4 °C -9.8 °C 34327.3 hPa ESE 6 km/h 6 km/h 36 % 0 mm 807.0 W/m2 CLR
12:20 -0.2 °C -10.3 °C 34313.7 hPa SE 9 km/h 9 km/h 33 % 0 mm 814.0 W/m2 CLR
12:25 0 °C -9.7 °C 34313.7 hPa ESE 17.9 km/h 17.9 km/h 35 % 0 mm 819.0 W/m2 CLR
12:30 0.1 °C -9.8 °C 34313.7 hPa ENE 11.9 km/h 11.9 km/h 34 % 0 mm 830.0 W/m2 CLR
12:35 0.2 °C -9.8 °C 34313.7 hPa ENE 7.7 km/h 7.7 km/h 34 % 0 mm 833.0 W/m2 CLR
12:40 0.2 °C -10.2 °C 34313.7 hPa ENE 17.9 km/h 17.9 km/h 32 % 0 mm 838.0 W/m2 CLR
12:45 0.2 °C -9.9 °C 34313.7 hPa ESE 6 km/h 6 km/h 33 % 0 mm 844.0 W/m2 CLR
12:50 0.3 °C -9.6 °C 34313.7 hPa East 17.9 km/h 17.9 km/h 34 % 0 mm 853.0 W/m2 CLR
12:55 0.4 °C -9.8 °C 34313.7 hPa ESE 29.8 km/h 29.8 km/h 33 % 0 mm 856.0 W/m2 CLR
13:00 0.5 °C -9.7 °C 34313.7 hPa East 15.6 km/h 15.6 km/h 33 % 0 mm 865.0 W/m2 CLR
13:05 0.7 °C -9.6 °C 34303.6 hPa East 20.9 km/h 20.9 km/h 33 % 0 mm 867.0 W/m2 CLR
13:10 0.8 °C -9.5 °C 34303.6 hPa ENE 26.9 km/h 26.9 km/h 33 % 0 mm 874.0 W/m2 CLR
13:15 0.8 °C -9.7 °C 34303.6 hPa East 29.8 km/h 29.8 km/h 32 % 0 mm 877.0 W/m2 CLR
13:20 0.8 °C -9.8 °C 34303.6 hPa East 23.8 km/h 23.8 km/h 32 % 0 mm 881.0 W/m2 CLR
13:25 0.9 °C -9.7 °C 34293.4 hPa SE 26.9 km/h 26.9 km/h 32 % 0 mm 881.0 W/m2 CLR
13:30 0.9 °C -9.9 °C 34293.4 hPa ESE 20.9 km/h 20.9 km/h 31 % 0 mm 886.0 W/m2 CLR
13:31 0.9 °C -9.6 °C 34293.4 hPa East 20.9 km/h 20.9 km/h 32 % 0 mm 886.0 W/m2 CLR
13:36 1.1 °C -9.3 °C 34293.4 hPa East 23.8 km/h 23.8 km/h 33 % 0 mm 889.0 W/m2 CLR
13:41 1.1 °C -9.5 °C 34279.9 hPa ENE 32.8 km/h 32.8 km/h 32 % 0 mm 895.0 W/m2 CLR
13:46 1.3 °C -9.6 °C 34293.4 hPa East 29.8 km/h 29.8 km/h 31 % 0 mm 895.0 W/m2 CLR
13:51 1.3 °C -9.3 °C 34279.9 hPa East 20.9 km/h 20.9 km/h 32 % 0 mm 898.0 W/m2 CLR
13:56 1.3 °C -8.7 °C 34279.9 hPa East 29.8 km/h 29.8 km/h 34 % 0 mm 911.0 W/m2 CLR
14:01 1.2 °C -8.8 °C 34279.9 hPa ESE 38.8 km/h 38.8 km/h 34 % 0 mm 925.0 W/m2 CLR
14:06 1.2 °C -8.8 °C 34279.9 hPa SE 41.7 km/h 41.7 km/h 34 % 0 mm 925.0 W/m2 CLR
14:11 1.2 °C -8.8 °C 34269.7 hPa East 32.8 km/h 32.8 km/h 34 % 0 mm 928.0 W/m2 CLR
14:16 1.3 °C -8.5 °C 34269.7 hPa SE 41.4 km/h 41.4 km/h 35 % 0 mm 962.0 W/m2 CLR
14:21 1.4 °C -8.7 °C 34269.7 hPa SE 38.8 km/h 38.8 km/h 34 % 0 mm 1009.0 W/m2 CLR
14:26 1.3 °C -8.5 °C 34269.7 hPa SE 38.8 km/h 38.8 km/h 35 % 0 mm 520.0 W/m2 CLR
14:31 1.2 °C -8.4 °C 34269.7 hPa SE 47.6 km/h 47.6 km/h 36 % 0 mm 508.0 W/m2 CLR
14:36 1 °C -8.1 °C 34269.7 hPa ESE 41.7 km/h 41.7 km/h 38 % 0 mm 420.0 W/m2 CLR
14:41 1.1 °C -7.8 °C 34269.7 hPa ESE 44.7 km/h 44.7 km/h 39 % 0 mm 1014.0 W/m2 CLR
14:46 1.1 °C -7.7 °C 34269.7 hPa ESE 41.7 km/h 41.7 km/h 39 % 0 mm 995.0 W/m2 CLR
14:51 1.2 °C -7.9 °C 34269.7 hPa ESE 47.6 km/h 47.6 km/h 38 % 0 mm 951.0 W/m2 CLR
14:56 1.1 °C -7.7 °C 34256.2 hPa ESE 50.7 km/h 50.7 km/h 39 % 0 mm 330.0 W/m2 CLR
15:01 0.9 °C -7.9 °C 34256.2 hPa ESE 50.7 km/h 50.7 km/h 39 % 0 mm 297.0 W/m2 CLR
15:06 1 °C -7.6 °C 34246 hPa ESE 47.6 km/h 47.6 km/h 40 % 0 mm 438.0 W/m2 CLR
15:11 0.8 °C -7.6 °C 34246 hPa SSE 44.7 km/h 44.7 km/h 41 % 0 mm 557.0 W/m2 CLR
15:16 1 °C -7.6 °C 34235.8 hPa East 54.4 km/h 54.4 km/h 40 % 0 mm 671.0 W/m2 CLR
15:21 0.9 °C -7.7 °C 34235.8 hPa ESE 56.6 km/h 56.6 km/h 40 % 0 mm 745.0 W/m2 CLR
15:26 0.9 °C -7.4 °C 34235.8 hPa SE 51.8 km/h 51.8 km/h 41 % 0 mm 824.0 W/m2 CLR
15:31 1.2 °C -7.7 °C 34235.8 hPa SE 53.6 km/h 53.6 km/h 39 % 0 mm 895.0 W/m2 CLR
15:36 1.2 °C -7.4 °C 34235.8 hPa South 38.8 km/h 38.8 km/h 40 % 0 mm 861.0 W/m2 CLR
15:41 1.3 °C -7.8 °C 34235.8 hPa SSE 41.4 km/h 41.4 km/h 38 % 0 mm 805.0 W/m2 CLR
15:46 1.4 °C -7.9 °C 34222.3 hPa ESE 38.8 km/h 38.8 km/h 37 % 0 mm 814.0 W/m2 CLR
15:51 1.3 °C -8.1 °C 34235.8 hPa ESE 46.7 km/h 46.7 km/h 37 % 0 mm 803.0 W/m2 CLR
15:56 1.3 °C -7.9 °C 34222.3 hPa ESE 35.7 km/h 35.7 km/h 37 % 0 mm 796.0 W/m2 CLR
16:01 1.4 °C -7.9 °C 34222.3 hPa SSE 49.2 km/h 49.2 km/h 37 % 0 mm 788.0 W/m2 CLR
16:06 1.3 °C -7.9 °C 34222.3 hPa SE 35.7 km/h 35.7 km/h 37 % 0 mm 782.0 W/m2 CLR
16:11 1.3 °C -7.9 °C 34222.3 hPa ESE 47.6 km/h 47.6 km/h 37 % 0 mm 777.0 W/m2 CLR
16:16 1.4 °C -7.7 °C 34222.3 hPa SSE 50.7 km/h 50.7 km/h 38 % 0 mm 770.0 W/m2 CLR
16:21 1.3 °C -8.1 °C 34222.3 hPa SE 50.7 km/h 50.7 km/h 37 % 0 mm 768.0 W/m2 CLR
16:26 1.2 °C -7.8 °C 34222.3 hPa SE 46.7 km/h 46.7 km/h 38 % 0 mm 770.0 W/m2 CLR
16:31 1.1 °C -8 °C 34222.3 hPa SE 50.7 km/h 50.7 km/h 38 % 0 mm 800.0 W/m2 CLR
16:36 1.2 °C -7.9 °C 34222.3 hPa SSE 44.7 km/h 44.7 km/h 38 % 0 mm 663.0 W/m2 CLR
16:42 1.2 °C -7.9 °C 34222.3 hPa SE 59.5 km/h 59.5 km/h 38 % 0 mm 826.0 W/m2 CLR
16:47 1.1 °C -8 °C 34222.3 hPa SE 35.7 km/h 35.7 km/h 38 % 0 mm 429.0 W/m2 CLR
16:51 0.9 °C -7.9 °C 34222.3 hPa ESE 44.1 km/h 44.1 km/h 39 % 0 mm 251.0 W/m2 CLR
16:56 0.7 °C -8.1 °C 34222.3 hPa ESE 33.6 km/h 33.6 km/h 39 % 0 mm 399.0 W/m2 CLR
17:01 0.7 °C -8.1 °C 34222.3 hPa SE 38.8 km/h 38.8 km/h 39 % 0 mm 415.0 W/m2 CLR
17:06 0.7 °C -8.2 °C 34222.3 hPa ESE 33.6 km/h 33.6 km/h 39 % 0 mm 728.0 W/m2 CLR
17:12 0.7 °C -8.1 °C 34212.1 hPa ESE 47.6 km/h 47.6 km/h 39 % 0 mm 457.0 W/m2 CLR
17:17 0.6 °C -7.6 °C 34212.1 hPa East 38.8 km/h 38.8 km/h 42 % 0 mm 490.0 W/m2 CLR
17:22 0.7 °C -8.2 °C 34212.1 hPa ESE 41.7 km/h 41.7 km/h 39 % 0 mm 290.0 W/m2 CLR
17:27 0.6 °C -8.4 °C 34212.1 hPa SE 50.7 km/h 50.7 km/h 38 % 0 mm 367.0 W/m2 CLR
17:31 0.7 °C -7.7 °C 34212.1 hPa SE 38.8 km/h 38.8 km/h 41 % 0 mm 494.0 W/m2 CLR
17:36 0.6 °C -7.8 °C 34212.1 hPa SE 36.2 km/h 36.2 km/h 41 % 0 mm 339.0 W/m2 CLR
17:42 0.8 °C -8.4 °C 34198.6 hPa SSE 41.7 km/h 41.7 km/h 37 % 0 mm 221.0 W/m2 CLR
17:47 0.6 °C -8.2 °C 34198.6 hPa SE 36.2 km/h 36.2 km/h 39 % 0 mm 214.0 W/m2 CLR
17:52 0.4 °C -8.3 °C 34212.1 hPa SE 50.7 km/h 50.7 km/h 39 % 0 mm 141.0 W/m2 CLR
17:57 0.2 °C -8.1 °C 34212.1 hPa SE 38.8 km/h 38.8 km/h 41 % 0 mm 120.0 W/m2 CLR
18:02 -0.1 °C -8.2 °C 34222.3 hPa SE 38.8 km/h 38.8 km/h 42 % 0 mm 118.0 W/m2 CLR
18:07 -0.2 °C -8.4 °C 34222.3 hPa SE 41.4 km/h 41.4 km/h 41 % 0 mm 134.0 W/m2 CLR
18:12 -0.2 °C -8.2 °C 34222.3 hPa ESE 38.8 km/h 38.8 km/h 42 % 0 mm 135.0 W/m2 CLR
18:17 -0.3 °C -8.2 °C 34222.3 hPa SE 29.8 km/h 29.8 km/h 43 % 0 mm 137.0 W/m2 CLR
18:22 -0.3 °C -8.3 °C 34222.3 hPa SE 17.9 km/h 17.9 km/h 42 % 0 mm 128.0 W/m2 CLR
18:27 -0.3 °C -8.1 °C 34222.3 hPa SE 29.8 km/h 29.8 km/h 43 % 0 mm 118.0 W/m2 CLR
18:32 -0.4 °C -8.2 °C 34235.8 hPa SE 20.9 km/h 20.9 km/h 43 % 0 mm 104.0 W/m2 CLR
18:37 -0.4 °C -8.1 °C 34235.8 hPa SE 29.8 km/h 29.8 km/h 44 % 0 mm 90.0 W/m2 CLR
18:42 -0.6 °C -8 °C 34256.2 hPa ESE 15 km/h 15 km/h 45 % 0 mm 81.0 W/m2 CLR
18:47 -0.7 °C -7.9 °C 34269.7 hPa ENE 9 km/h 9 km/h 46 % 0 mm 76.0 W/m2 FEW
18:52 -0.8 °C -8 °C 34269.7 hPa ENE 9 km/h 9 km/h 46 % 0 mm 86.0 W/m2 FEW
18:57 -0.9 °C -7.9 °C 34269.7 hPa ENE 17.9 km/h 17.9 km/h 47 % 0 mm 102.0 W/m2 CLR
19:02 -1.1 °C -7.8 °C 34256.2 hPa East 26.9 km/h 26.9 km/h 48 % 0 mm 104.0 W/m2 CLR
19:07 -1.2 °C -7.9 °C 34246 hPa East 29.8 km/h 29.8 km/h 48 % 0 mm 97.0 W/m2 CLR
19:12 -1.3 °C -8.1 °C 34246 hPa ESE 35.7 km/h 35.7 km/h 48 % 0 mm 79.0 W/m2 CLR
19:17 -1.3 °C -8.1 °C 34246 hPa ESE 35.7 km/h 35.7 km/h 48 % 0 mm 70.0 W/m2 FEW
19:22 -1.5 °C -7.6 °C 34246 hPa East 32.8 km/h 32.8 km/h 52 % 0 mm 77.0 W/m2 FEW
19:27 -1.8 °C -7.2 °C 34246 hPa ESE 35.7 km/h 35.7 km/h 56 % 0 mm 86.0 W/m2 FEW
19:32 -2.2 °C -7.2 °C 34256.2 hPa East 26.9 km/h 26.9 km/h 58 % 0 mm 93.0 W/m2 FEW
19:37 -2.3 °C -7.2 °C 34256.2 hPa NNE 11.9 km/h 11.9 km/h 59 % 0 mm 97.0 W/m2 CLR
19:42 -2.3 °C -7.2 °C 34269.7 hPa Calm     59 % 0 mm 97.0 W/m2 CLR
19:47 -2.4 °C -7.1 °C 34269.7 hPa ENE 11.9 km/h 11.9 km/h 60 % 0 mm 91.0 W/m2 CLR
19:52 -2.4 °C -7.1 °C 34269.7 hPa East 26.9 km/h 26.9 km/h 60 % 0 mm 81.0 W/m2 CLR
19:57 -2.5 °C -7.3 °C 34269.7 hPa ENE 23.8 km/h 23.8 km/h 59 % 0 mm 69.0 W/m2 FEW
20:02 -2.6 °C -7.2 °C 34269.7 hPa Calm     60 % 0 mm 51.0 W/m2 FEW
20:07 -2.6 °C -7.3 °C 34279.9 hPa SE 10.3 km/h 10.3 km/h 60 % 0 mm 44.0 W/m2 SCT
20:12 -2.6 °C -7.4 °C 34279.9 hPa ESE 29.8 km/h 29.8 km/h 59 % 0 mm 37.0 W/m2 SCT
20:17 -2.6 °C -7.4 °C 34293.4 hPa SE 32.8 km/h 32.8 km/h 59 % 0 mm 32.0 W/m2 BKN
20:22 -2.6 °C -7.6 °C 34279.9 hPa SE 23.8 km/h 23.8 km/h 58 % 0 mm 25.0 W/m2 BKN
20:27 -2.7 °C -7.7 °C 34279.9 hPa SE 54.4 km/h 54.4 km/h 58 % 0 mm 19.0 W/m2 BKN
20:32 -2.7 °C -7.7 °C 34293.4 hPa SSE 44.7 km/h 44.7 km/h 58 % 0 mm 14.0 W/m2 BKN
20:37 -2.8 °C -7.5 °C 34293.4 hPa SSE 35.7 km/h 35.7 km/h 60 % 0 mm 11.0 W/m2 BKN
20:42 -2.9 °C -7.4 °C 34293.4 hPa SSE 41.7 km/h 41.7 km/h 61 % 0 mm 7.0 W/m2 BKN
20:47 -2.9 °C -7.5 °C 34293.4 hPa SE 47.6 km/h 47.6 km/h 61 % 0 mm 5.0 W/m2 OVC
20:52 -3 °C -7.4 °C 34293.4 hPa South 29.8 km/h 29.8 km/h 62 % 0 mm 0.0 W/m2 OVC
20:57 -3 °C -7.6 °C 34303.6 hPa SE 41.7 km/h 41.7 km/h 61 % 0 mm 0.0 W/m2 OVC
21:02 -3.1 °C -7.6 °C 34303.6 hPa SE 41.7 km/h 41.7 km/h 61 % 0 mm 0.0 W/m2 OVC
21:07 -3.1 °C -7.6 °C 34303.6 hPa SE 41.7 km/h 41.7 km/h 61 % 0 mm 0.0 W/m2 OVC
21:12 -3.1 °C -7.6 °C 34313.7 hPa SE 41.7 km/h 41.7 km/h 61 % 0 mm 0.0 W/m2 OVC
21:17 -3.1 °C -7.5 °C 34313.7 hPa SE 29.8 km/h 29.8 km/h 62 % 0 mm 0.0 W/m2 OVC
21:22 -3.2 °C -7.6 °C 34313.7 hPa SE 32.8 km/h 32.8 km/h 62 % 0 mm 0.0 W/m2 OVC
21:27 -3.2 °C -7.4 °C 34313.7 hPa SSE 41.7 km/h 41.7 km/h 63 % 0 mm 0.0 W/m2 OVC
21:32 -3.3 °C -7.4 °C 34313.7 hPa SE 29.8 km/h 29.8 km/h 64 % 0 mm 0.0 W/m2 OVC
21:37 -3.3 °C -7.3 °C 34313.7 hPa SSE 50.7 km/h 50.7 km/h 65 % 0 mm 0.0 W/m2 OVC
21:42 -3.5 °C -7.2 °C 34327.3 hPa SSE 41.7 km/h 41.7 km/h 67 % 0 mm 0.0 W/m2 CLR
21:47 -3.6 °C -7.1 °C 34337.4 hPa SSE 32.8 km/h 32.8 km/h 68 % 0 mm 0.0 W/m2 CLR
21:52 -3.5 °C -7.3 °C 34337.4 hPa SSE 38.8 km/h 38.8 km/h 66 % 0 mm 0.0 W/m2 CLR
21:57 -3.5 °C -7.3 °C 34337.4 hPa SE 50.7 km/h 50.7 km/h 66 % 0 mm 0.0 W/m2 CLR
22:02 -3.6 °C -7.3 °C 34337.4 hPa SE 33.6 km/h 33.6 km/h 66 % 0 mm 0.0 W/m2 CLR
22:07 -3.6 °C -7.4 °C 34347.6 hPa SSE 35.7 km/h 35.7 km/h 66 % 0 mm 0.0 W/m2 CLR
22:12 -3.6 °C -7.4 °C 34361.1 hPa SE 50.7 km/h 50.7 km/h 66 % 0 mm 0.0 W/m2 CLR
22:17 -3.6 °C -7.4 °C 34384.8 hPa South 20.9 km/h 20.9 km/h 66 % 0 mm 0.0 W/m2 CLR
22:22 -3.6 °C -7.4 °C 34405.1 hPa SW 15 km/h 16.3 km/h 66 % 0 mm 0.0 W/m2 CLR
22:27 -3.6 °C -7.4 °C 34418.7 hPa SW 15 km/h 15 km/h 66 % 0 mm 0.0 W/m2 CLR
22:32 -3.6 °C -7.3 °C 34405.1 hPa Calm     67 % 0 mm 0.0 W/m2 CLR
22:37 -3.7 °C -7.3 °C 34384.8 hPa Calm     67 % 0 mm 0.0 W/m2 CLR
22:43 -3.7 °C -7.3 °C 34384.8 hPa Calm     67 % 0 mm 0.0 W/m2 CLR
22:48 -3.7 °C -7.3 °C 34384.8 hPa Calm     67 % 0 mm 0.0 W/m2 CLR
22:53 -3.7 °C -7.3 °C 34384.8 hPa Calm     67 % 0 mm 0.0 W/m2 CLR
22:58 -3.7 °C -7.3 °C 34371.3 hPa Calm     68 % 0 mm 0.0 W/m2 CLR
23:03 -3.8 °C -7.3 °C 34371.3 hPa Calm     68 % 0 mm 0.0 W/m2 CLR
23:08 -3.8 °C -7.3 °C 34371.3 hPa Calm     68 % 0 mm 0.0 W/m2 CLR
23:13 -3.8 °C -7.4 °C 34361.1 hPa ENE 15.6 km/h 15.6 km/h 68 % 0 mm 0.0 W/m2 CLR
23:18 -3.9 °C -7.3 °C 34361.1 hPa ENE 11.9 km/h 11.9 km/h 69 % 0 mm 0.0 W/m2 CLR
23:23 -4 °C -7.5 °C 34347.6 hPa East 10.3 km/h 10.3 km/h 68 % 0 mm 0.0 W/m2 CLR
23:24 -4 °C -7.5 °C 34347.6 hPa East 11.9 km/h 11.9 km/h 68 % 0 mm 0.0 W/m2 CLR
23:29 -3.9 °C -7.4 °C 34347.6 hPa ESE 26.9 km/h 26.9 km/h 68 % 0 mm 0.0 W/m2 CLR
23:34 -4 °C -7.4 °C 34337.4 hPa SE 9 km/h 9 km/h 69 % 0 mm 0.0 W/m2 CLR
23:39 -4.1 °C -7.7 °C 34313.7 hPa SE 29.8 km/h 29.8 km/h 67 % 0 mm 0.0 W/m2 CLR
23:44 -4.1 °C -7.6 °C 34303.6 hPa ESE 26.9 km/h 26.9 km/h 68 % 0 mm 0.0 W/m2 CLR
23:49 -4.1 °C -7.6 °C 34303.6 hPa SE 26.9 km/h 26.9 km/h 68 % 0 mm 0.0 W/m2 CLR
23:54 -4.1 °C -7.6 °C 34293.4 hPa SE 35.7 km/h 35.7 km/h 68 % 0 mm 0.0 W/m2 CLR
23:55 -4.1 °C -7.6 °C 34293.4 hPa ESE 35.7 km/h 35.7 km/h 68 % 0 mm 0.0 W/m2 CLR
23:59 -4.1 °C -7.6 °C 34293.4 hPa SE 29.8 km/h 29.8 km/h 68 % 0 mm 0.0 W/m2 CLR
Lo Temps de Massalio
Compliments of Weather Underground - 1.25 mb